Urb Baralt, Puerto Rico
Current Conditions -  °F | °C
As of 11:53 AM on Friday 21 Nov 2014 (Local Time) from TJNR Reporting Station
Scattered Clouds Scattered Clouds  
Wind Chill: 86°   Ceiling: Unl
Heat Index: 94°   Visibility: 10mi
Dew Point: 74°   Wind: 10mph
Humidity: 67%   Direction: 60°ENE
Pressure: 30.05"   Gusts: NA
Location:  18.3304°N, 65.6573°W
Report Text: TJNR 211553Z AUTO 06009KT 10SM SCT039 30/23 A3005 RMK AO2 SLP174 T03000233 $
Loading
Personal Weather Stations






























Interactive Weather Map New forecast layout! Learn more

10-Day Weather Forecast

Advertisements
Track Severe Weather on mobile